createdAt,value
2019-03-24T00:01:41.406Z,43.73
2019-03-24T00:04:11.001Z,41.10
2019-03-24T00:06:40.503Z,40.63
2019-03-24T00:09:09.992Z,48.23
2019-03-24T00:11:39.342Z,39.00
2019-03-24T00:14:08.796Z,36.10
2019-03-24T00:16:38.187Z,38.90
2019-03-24T00:19:07.702Z,38.53
2019-03-24T00:21:37.123Z,34.43
2019-03-24T00:24:06.603Z,35.83
2019-03-24T00:26:36.105Z,35.88
2019-03-24T00:29:05.517Z,35.10
2019-03-24T00:31:34.846Z,34.73
2019-03-24T00:34:04.510Z,34.95
2019-03-24T00:36:33.880Z,36.15
2019-03-24T00:39:04.790Z,36.73
2019-03-24T00:41:34.179Z,36.30
2019-03-24T00:44:03.718Z,37.17
2019-03-24T00:46:33.146Z,37.70
2019-03-24T00:49:02.528Z,36.73
2019-03-24T00:51:31.879Z,37.20
2019-03-24T00:54:01.812Z,36.50
2019-03-24T00:56:31.323Z,37.63
2019-03-24T00:59:00.687Z,38.05
2019-03-24T01:01:30.238Z,38.73
2019-03-24T01:03:59.627Z,38.48
2019-03-24T01:06:29.152Z,39.38
2019-03-24T01:08:58.462Z,37.35
2019-03-24T01:11:28.165Z,38.90
2019-03-24T01:13:57.523Z,38.20
2019-03-24T01:16:26.950Z,38.40
2019-03-24T01:18:56.341Z,38.38
2019-03-24T01:21:25.938Z,37.33
2019-03-24T01:23:55.354Z,38.33
2019-03-24T01:26:24.731Z,39.00
2019-03-24T01:28:54.201Z,38.40
2019-03-24T01:31:23.570Z,38.50
2019-03-24T01:33:52.922Z,41.10
2019-03-24T01:36:22.288Z,39.88
2019-03-24T01:38:51.631Z,40.15
2019-03-24T01:41:20.989Z,39.13
2019-03-24T01:43:50.683Z,36.28
2019-03-24T01:46:20.041Z,36.93
2019-03-24T01:48:49.418Z,38.25
2019-03-24T01:51:18.996Z,39.05
2019-03-24T01:53:48.601Z,40.07
2019-03-24T01:56:18.000Z,37.50
2019-03-24T01:58:47.504Z,39.75
2019-03-24T02:01:16.920Z,40.33
2019-03-24T02:03:46.344Z,40.23
2019-03-24T02:06:15.679Z,40.45
2019-03-24T02:08:45.083Z,40.95
2019-03-24T02:11:14.500Z,43.00
2019-03-24T02:13:43.899Z,42.00
2019-03-24T02:16:14.232Z,42.27
2019-03-24T02:18:43.579Z,40.88
2019-03-24T02:21:12.994Z,41.05
2019-03-24T02:23:42.356Z,40.35
2019-03-24T02:26:11.754Z,39.80
2019-03-24T02:28:41.101Z,39.13
2019-03-24T02:31:11.443Z,41.60
2019-03-24T02:33:40.772Z,40.12
2019-03-24T02:36:10.161Z,41.00
2019-03-24T02:38:39.540Z,41.42
2019-03-24T02:41:09.042Z,42.23
2019-03-24T02:43:38.480Z,43.87
2019-03-24T02:46:07.930Z,42.23
2019-03-24T02:48:37.624Z,45.05
2019-03-24T02:51:07.096Z,42.60
2019-03-24T02:53:36.568Z,42.38
2019-03-24T02:56:05.999Z,42.00
2019-03-24T02:58:35.647Z,41.53
2019-03-24T03:01:06.091Z,42.05
2019-03-24T03:03:35.580Z,41.33
2019-03-24T03:06:05.162Z,42.43
2019-03-24T03:08:34.525Z,41.73
2019-03-24T03:11:04.367Z,42.58
2019-03-24T03:13:33.968Z,42.78
2019-03-24T03:16:03.497Z,43.78
2019-03-24T03:18:33.190Z,43.63
2019-03-24T03:21:02.640Z,42.30
2019-03-24T03:23:32.196Z,43.63
2019-03-24T03:26:02.082Z,43.20
2019-03-24T03:28:31.581Z,41.65
2019-03-24T03:31:01.044Z,42.62
2019-03-24T03:33:30.852Z,42.50
2019-03-24T03:36:00.231Z,42.80
2019-03-24T03:38:29.904Z,42.78
2019-03-24T03:40:59.579Z,42.73
2019-03-24T03:43:29.024Z,42.50
2019-03-24T03:45:58.466Z,41.02
2019-03-24T03:48:27.822Z,41.35
2019-03-24T03:50:57.244Z,40.40
2019-03-24T03:53:26.640Z,38.98
2019-03-24T03:55:55.975Z,39.05
2019-03-24T03:58:25.352Z,39.07
2019-03-24T04:00:54.867Z,39.85
2019-03-24T04:03:24.241Z,41.20
2019-03-24T04:05:53.681Z,40.45
2019-03-24T04:08:23.051Z,40.83
2019-03-24T04:10:52.498Z,42.13
2019-03-24T04:13:21.966Z,42.30
2019-03-24T04:15:51.383Z,42.15
2019-03-24T04:18:20.804Z,41.88
2019-03-24T04:20:50.292Z,42.03
2019-03-24T04:23:19.627Z,43.73
2019-03-24T04:25:49.124Z,42.43
2019-03-24T04:28:18.929Z,42.27
2019-03-24T04:30:48.261Z,43.97
2019-03-24T04:33:17.603Z,44.33
2019-03-24T04:35:47.810Z,43.65
2019-03-24T04:38:17.306Z,42.25
2019-03-24T04:40:47.088Z,40.05
2019-03-24T04:43:16.452Z,42.48
2019-03-24T04:45:45.782Z,43.13
2019-03-24T04:48:15.126Z,43.48
2019-03-24T04:50:44.474Z,43.70
2019-03-24T04:53:13.819Z,42.98
2019-03-24T04:55:43.411Z,42.93
2019-03-24T04:58:12.779Z,42.45
2019-03-24T05:00:42.374Z,43.60
2019-03-24T05:03:11.922Z,41.73
2019-03-24T05:05:42.038Z,43.75
2019-03-24T05:08:14.098Z,45.35
2019-03-24T05:10:43.522Z,44.67
2019-03-24T05:13:12.918Z,45.30
2019-03-24T05:15:42.299Z,43.68
2019-03-24T05:18:11.751Z,44.25
2019-03-24T05:20:41.732Z,42.58
2019-03-24T05:23:11.190Z,44.40
2019-03-24T05:25:40.508Z,44.90
2019-03-24T05:28:09.875Z,43.25
2019-03-24T05:30:39.311Z,43.05
2019-03-24T05:33:08.635Z,41.85
2019-03-24T05:35:37.986Z,42.78
2019-03-24T05:38:07.377Z,41.45
2019-03-24T05:40:36.846Z,42.95
2019-03-24T05:43:06.162Z,41.50
2019-03-24T05:45:35.563Z,41.68
2019-03-24T05:48:05.283Z,41.75
2019-03-24T05:50:34.828Z,40.60
2019-03-24T05:53:04.349Z,40.55
2019-03-24T05:55:33.978Z,41.23
2019-03-24T05:58:03.441Z,41.70
2019-03-24T06:00:33.251Z,40.38
2019-03-24T06:03:02.679Z,40.92
2019-03-24T06:05:32.050Z,38.48
2019-03-24T06:08:01.533Z,38.85
2019-03-24T06:10:30.974Z,38.63
2019-03-24T06:13:00.434Z,37.78
2019-03-24T06:15:29.859Z,37.40
2019-03-24T06:17:59.317Z,36.63
2019-03-24T06:20:28.713Z,36.30
2019-03-24T06:22:58.045Z,35.20
2019-03-24T06:25:27.459Z,34.33
2019-03-24T06:27:57.123Z,34.03
2019-03-24T06:30:26.610Z,35.03
2019-03-24T06:32:56.026Z,34.35
2019-03-24T06:35:25.609Z,35.08
2019-03-24T06:37:54.974Z,35.55
2019-03-24T06:40:24.310Z,35.28
2019-03-24T06:42:53.743Z,34.48
2019-03-24T06:45:28.470Z,35.48
2019-03-24T06:47:58.250Z,33.80
2019-03-24T06:50:25.634Z,34.73
2019-03-24T06:52:55.055Z,34.95
2019-03-24T06:55:24.427Z,34.50
2019-03-24T06:57:53.838Z,35.33
2019-03-24T07:00:23.209Z,33.65
2019-03-24T07:02:52.549Z,34.00
2019-03-24T07:05:22.072Z,34.17
2019-03-24T07:07:51.422Z,33.92
2019-03-24T07:10:20.766Z,34.98
2019-03-24T07:12:51.487Z,34.75
2019-03-24T07:15:21.043Z,35.87
2019-03-24T07:17:50.775Z,36.77
2019-03-24T07:20:20.244Z,36.20
2019-03-24T07:22:49.738Z,37.48
2019-03-24T07:25:19.283Z,39.70
2019-03-24T07:27:48.734Z,39.25
2019-03-24T07:30:18.636Z,39.38
2019-03-24T07:32:48.099Z,40.07
2019-03-24T07:35:18.413Z,41.13
2019-03-24T07:37:47.896Z,41.08
2019-03-24T07:40:17.583Z,41.63
2019-03-24T07:42:47.042Z,41.35
2019-03-24T07:45:16.594Z,42.80
2019-03-24T07:47:45.922Z,41.98
2019-03-24T07:50:15.769Z,41.65
2019-03-24T07:52:45.195Z,45.60
2019-03-24T07:55:14.674Z,43.83
2019-03-24T07:57:44.160Z,44.95
2019-03-24T08:00:15.608Z,44.93
2019-03-24T08:02:51.537Z,44.93
2019-03-24T08:05:21.147Z,45.43
2019-03-24T08:07:50.526Z,47.40
2019-03-24T08:10:19.959Z,47.43
2019-03-24T08:12:49.513Z,47.65
2019-03-24T08:15:19.074Z,47.03
2019-03-24T08:17:48.499Z,50.03
2019-03-24T08:20:17.920Z,51.00
2019-03-24T08:22:47.495Z,50.12
2019-03-24T08:25:19.054Z,49.05
2019-03-24T08:27:48.495Z,51.40
2019-03-24T08:30:29.259Z,51.98
2019-03-24T08:32:58.707Z,52.55
2019-03-24T08:35:28.121Z,51.23
2019-03-24T08:37:57.514Z,50.55
2019-03-24T08:40:26.970Z,49.35
2019-03-24T08:42:56.374Z,50.20
2019-03-24T08:45:30.727Z,50.23
2019-03-24T08:48:01.101Z,50.50
2019-03-24T08:50:30.469Z,49.73
2019-03-24T08:52:59.831Z,51.00
2019-03-24T08:55:29.196Z,49.73
2019-03-24T08:57:58.654Z,49.45
2019-03-24T09:00:30.811Z,49.10
2019-03-24T09:02:59.555Z,48.70
2019-03-24T09:05:28.883Z,48.28
2019-03-24T09:07:58.262Z,48.80
2019-03-24T09:10:27.994Z,49.45
2019-03-24T09:12:57.519Z,47.80
2019-03-24T09:15:27.203Z,49.67
2019-03-24T09:17:56.681Z,48.98
2019-03-24T09:20:26.032Z,47.90
2019-03-24T09:22:55.367Z,47.50
2019-03-24T09:25:25.370Z,46.65
2019-03-24T09:27:54.799Z,47.33
2019-03-24T09:30:32.086Z,46.77
2019-03-24T09:33:01.855Z,47.40
2019-03-24T09:35:31.811Z,47.40
2019-03-24T09:38:04.165Z,47.08
2019-03-24T09:40:34.287Z,47.43
2019-03-24T09:43:05.006Z,48.10
2019-03-24T09:45:34.865Z,46.35
2019-03-24T09:48:04.709Z,47.17
2019-03-24T09:53:54.900Z,47.03
2019-03-24T09:56:25.114Z,45.63
2019-03-24T09:58:55.039Z,45.00
2019-03-24T10:01:25.193Z,43.78
2019-03-24T10:03:54.838Z,45.73
2019-03-24T10:06:24.598Z,44.83
2019-03-24T10:08:54.639Z,43.73
2019-03-24T10:11:25.018Z,42.67
2019-03-24T10:13:55.426Z,41.98
2019-03-24T10:16:31.881Z,44.03
2019-03-24T10:19:01.617Z,42.70
2019-03-24T10:21:31.216Z,44.75
2019-03-24T10:24:01.035Z,44.70
2019-03-24T10:26:30.581Z,43.63
2019-03-24T10:29:00.571Z,42.23
2019-03-24T10:31:30.175Z,41.95
2019-03-24T10:33:59.687Z,43.45
2019-03-24T10:36:29.135Z,42.70
2019-03-24T10:38:58.676Z,42.33
2019-03-24T10:41:28.151Z,41.93
2019-03-24T10:43:57.588Z,40.88
2019-03-24T10:46:27.242Z,40.12
2019-03-24T10:48:56.682Z,40.15
2019-03-24T10:51:26.423Z,37.75
2019-03-24T10:53:56.262Z,40.03
2019-03-24T10:56:25.766Z,39.08
2019-03-24T10:58:55.138Z,39.75
2019-03-24T11:01:24.674Z,40.38
2019-03-24T11:03:54.360Z,40.12
2019-03-24T11:06:23.971Z,42.00
2019-03-24T11:08:53.920Z,42.05
2019-03-24T11:11:24.465Z,39.47
2019-03-24T11:13:53.975Z,41.13
2019-03-24T11:16:23.755Z,40.73
2019-03-24T11:18:54.475Z,39.53
2019-03-24T11:21:24.025Z,41.83
2019-03-24T11:23:54.323Z,39.55
2019-03-24T11:26:24.398Z,39.55
2019-03-24T11:28:54.248Z,40.43
2019-03-24T11:31:24.946Z,39.25
2019-03-24T11:34:10.432Z,40.30
2019-03-24T11:36:57.100Z,40.12
2019-03-24T11:39:26.429Z,39.90
2019-03-24T11:41:55.935Z,39.27
2019-03-24T11:44:25.298Z,38.63
2019-03-24T11:46:54.698Z,38.38
2019-03-24T11:49:24.138Z,38.02
2019-03-24T11:51:53.732Z,38.63
2019-03-24T11:54:23.074Z,38.05
2019-03-24T11:56:52.483Z,37.20
2019-03-24T11:59:22.048Z,38.00
2019-03-24T12:01:51.581Z,37.15
2019-03-24T12:04:21.066Z,37.78
2019-03-24T12:06:50.451Z,38.65
2019-03-24T12:09:28.904Z,37.58
2019-03-24T12:11:58.387Z,37.00
2019-03-24T12:14:28.675Z,38.15
2019-03-24T12:16:58.037Z,37.17
2019-03-24T12:19:27.410Z,37.30
2019-03-24T12:21:56.815Z,36.77
2019-03-24T12:24:26.318Z,35.78
2019-03-24T12:26:55.747Z,36.63
2019-03-24T12:29:25.174Z,36.25
2019-03-24T12:31:54.682Z,36.85
2019-03-24T12:34:24.290Z,36.65
2019-03-24T12:36:54.346Z,36.73
2019-03-24T12:39:23.682Z,36.25
2019-03-24T12:41:53.120Z,36.35
2019-03-24T12:44:22.778Z,37.20
2019-03-24T12:46:52.285Z,36.20
2019-03-24T12:49:21.658Z,37.93
2019-03-24T12:51:51.107Z,34.75
2019-03-24T12:54:20.558Z,35.65
2019-03-24T12:56:49.999Z,36.68
2019-03-24T12:59:19.502Z,36.75
2019-03-24T13:01:49.151Z,35.78
2019-03-24T13:04:18.598Z,35.43
2019-03-24T13:06:48.190Z,35.20
2019-03-24T13:09:17.534Z,33.88
2019-03-24T13:11:46.959Z,35.10
2019-03-24T13:14:16.330Z,34.48
2019-03-24T13:16:47.971Z,36.75
2019-03-24T13:19:17.423Z,35.27
2019-03-24T13:21:47.246Z,33.42
2019-03-24T13:24:16.722Z,33.55
2019-03-24T13:26:46.402Z,34.18
2019-03-24T13:29:15.785Z,31.50
2019-03-24T13:31:45.102Z,32.08
2019-03-24T13:34:14.605Z,32.20
2019-03-24T13:36:44.121Z,34.08
2019-03-24T13:39:13.585Z,33.18
2019-03-24T13:41:43.046Z,33.10
2019-03-24T13:44:12.588Z,31.35
2019-03-24T13:46:42.044Z,31.07
2019-03-24T13:49:11.857Z,32.93
2019-03-24T13:51:41.371Z,32.42
2019-03-24T13:54:10.691Z,33.20
2019-03-24T13:56:40.169Z,33.35
2019-03-24T13:59:09.618Z,34.88
2019-03-24T14:01:39.002Z,32.05
2019-03-24T14:04:08.395Z,33.40
2019-03-24T14:06:37.782Z,34.05
2019-03-24T14:09:09.187Z,34.23
2019-03-24T14:11:38.614Z,34.20
2019-03-24T14:14:08.076Z,34.43
2019-03-24T14:16:37.474Z,33.95
2019-03-24T14:19:07.007Z,32.73
2019-03-24T14:21:36.370Z,32.10
2019-03-24T14:24:05.858Z,32.20
2019-03-24T14:26:35.218Z,33.05
2019-03-24T14:29:04.928Z,32.28
2019-03-24T14:31:34.347Z,32.50
2019-03-24T14:34:03.828Z,32.13
2019-03-24T14:36:34.433Z,33.15
2019-03-24T14:39:04.664Z,32.95
2019-03-24T14:41:34.359Z,32.50
2019-03-24T14:44:03.832Z,33.33
2019-03-24T14:46:33.675Z,33.03
2019-03-24T14:49:03.196Z,33.83
2019-03-24T14:51:32.527Z,34.33
2019-03-24T14:54:01.995Z,34.63
2019-03-24T14:56:33.957Z,34.10
2019-03-24T14:59:02.676Z,34.65
2019-03-24T15:01:32.227Z,33.78
2019-03-24T15:04:01.644Z,35.48
2019-03-24T15:06:31.220Z,37.58
2019-03-24T15:09:01.387Z,37.38
2019-03-24T15:11:30.827Z,37.42
2019-03-24T15:14:00.243Z,37.53
2019-03-24T15:16:30.017Z,39.90
2019-03-24T15:18:59.374Z,39.05
2019-03-24T15:21:28.928Z,39.58
2019-03-24T15:23:58.354Z,39.00
2019-03-24T15:26:27.791Z,40.25
2019-03-24T15:28:57.215Z,40.52
2019-03-24T15:31:26.755Z,39.83
2019-03-24T15:33:56.103Z,39.38
2019-03-24T15:36:25.594Z,39.88
2019-03-24T15:38:55.083Z,39.38
2019-03-24T15:41:24.491Z,39.20
2019-03-24T15:43:54.302Z,41.00
2019-03-24T15:46:23.707Z,39.30
2019-03-24T15:48:53.179Z,39.45
2019-03-24T15:51:22.588Z,39.58
2019-03-24T15:53:51.977Z,39.38
2019-03-24T15:56:21.333Z,39.55
2019-03-24T15:58:50.704Z,40.80
2019-03-24T16:01:20.239Z,39.35
2019-03-24T16:03:49.704Z,38.58
2019-03-24T16:06:19.118Z,39.42
2019-03-24T16:08:48.639Z,39.98
2019-03-24T16:11:18.095Z,39.53
2019-03-24T16:13:47.609Z,39.42
2019-03-24T16:16:17.012Z,39.48
2019-03-24T16:18:46.701Z,39.92
2019-03-24T16:21:27.125Z,40.78
2019-03-24T16:23:47.309Z,42.67
2019-03-24T16:26:16.851Z,43.73
2019-03-24T16:28:46.438Z,46.02
2019-03-24T16:31:15.873Z,47.20
2019-03-24T16:33:45.284Z,46.25
2019-03-24T16:36:14.787Z,47.67
2019-03-24T16:38:48.912Z,47.20
2019-03-24T16:41:15.733Z,47.60
2019-03-24T16:43:45.136Z,46.77
2019-03-24T16:46:14.803Z,47.33
2019-03-24T16:48:44.251Z,47.83
2019-03-24T16:51:13.654Z,48.60
2019-03-24T16:53:43.232Z,47.27
2019-03-24T16:56:12.681Z,47.70
2019-03-24T16:58:42.368Z,47.30
2019-03-24T17:01:11.863Z,48.28
2019-03-24T17:03:41.214Z,48.42
2019-03-24T17:06:10.695Z,47.85
2019-03-24T17:08:40.010Z,47.73
2019-03-24T17:11:09.503Z,48.97
2019-03-24T17:13:39.021Z,48.57
2019-03-24T17:16:08.444Z,48.63
2019-03-24T17:18:38.030Z,48.13
2019-03-24T17:21:07.876Z,48.38
2019-03-24T17:23:37.310Z,48.20
2019-03-24T17:26:07.130Z,46.68
2019-03-24T17:28:36.655Z,46.60
2019-03-24T17:31:06.235Z,46.47
2019-03-24T17:33:36.244Z,46.18
2019-03-24T17:36:05.707Z,46.50
2019-03-24T17:38:35.018Z,45.73
2019-03-24T17:41:04.475Z,45.85
2019-03-24T17:43:34.136Z,48.42
2019-03-24T17:46:03.533Z,47.78
2019-03-24T17:48:32.859Z,47.73
2019-03-24T17:51:02.226Z,47.88
2019-03-24T17:53:31.615Z,48.90
2019-03-24T17:56:00.940Z,49.42
2019-03-24T17:58:30.383Z,50.15
2019-03-24T18:00:59.811Z,49.53
2019-03-24T18:03:29.885Z,48.87
2019-03-24T18:05:59.719Z,50.80
2019-03-24T18:08:29.292Z,50.63
2019-03-24T18:10:58.732Z,50.75
2019-03-24T18:13:28.079Z,51.00
2019-03-24T18:15:57.402Z,51.83
2019-03-24T18:18:26.823Z,51.60
2019-03-24T18:20:56.243Z,51.58
2019-03-24T18:23:25.607Z,52.33
2019-03-24T18:25:55.066Z,52.33
2019-03-24T18:28:24.554Z,52.15
2019-03-24T18:30:53.892Z,52.10
2019-03-24T18:33:23.334Z,51.75
2019-03-24T18:35:52.719Z,52.10
2019-03-24T18:38:22.362Z,51.37
2019-03-24T18:40:51.698Z,51.50
2019-03-24T18:43:21.234Z,52.50
2019-03-24T18:45:50.611Z,51.02
2019-03-24T18:48:19.920Z,51.95
2019-03-24T18:50:49.364Z,52.67
2019-03-24T18:53:19.114Z,51.65
2019-03-24T18:55:48.554Z,51.73
2019-03-24T18:58:18.419Z,52.73
2019-03-24T19:00:48.295Z,52.33
2019-03-24T19:03:17.719Z,51.40
2019-03-24T19:05:47.121Z,52.15
2019-03-24T19:08:16.543Z,52.03
2019-03-24T19:10:45.935Z,52.50
2019-03-24T19:13:15.543Z,53.65
2019-03-24T19:15:44.879Z,53.33
2019-03-24T19:18:14.244Z,53.50
2019-03-24T19:20:43.631Z,51.95
2019-03-24T19:23:13.133Z,53.90
2019-03-24T19:25:42.622Z,52.37
2019-03-24T19:28:12.437Z,54.00
2019-03-24T19:30:41.962Z,53.83
2019-03-24T19:33:11.939Z,54.70
2019-03-24T19:35:43.029Z,55.28
2019-03-24T19:38:12.646Z,55.27
2019-03-24T19:40:42.090Z,56.50
2019-03-24T19:43:11.733Z,56.53
2019-03-24T19:45:41.284Z,55.60
2019-03-24T19:48:10.946Z,56.58
2019-03-24T19:50:40.472Z,55.55
2019-03-24T19:53:10.382Z,57.00
2019-03-24T19:55:39.945Z,57.23
2019-03-24T19:58:09.332Z,56.60
2019-03-24T20:00:39.255Z,56.40
2019-03-24T20:03:09.054Z,57.08
2019-03-24T20:05:40.229Z,57.17
2019-03-24T20:08:09.820Z,55.95
2019-03-24T20:10:39.350Z,55.83
2019-03-24T20:13:08.789Z,56.63
2019-03-24T20:15:38.259Z,55.90
2019-03-24T20:18:07.813Z,56.70
2019-03-24T20:20:37.283Z,56.77
2019-03-24T20:23:07.161Z,57.30
2019-03-24T20:25:36.563Z,55.00
2019-03-24T20:28:07.066Z,56.30
2019-03-24T20:30:36.475Z,56.33
2019-03-24T20:33:06.514Z,57.55
2019-03-24T20:35:35.962Z,57.20
2019-03-24T20:38:05.530Z,58.68
2019-03-24T20:40:34.926Z,57.95
2019-03-24T20:43:04.496Z,57.17
2019-03-24T20:45:34.055Z,56.90
2019-03-24T20:48:03.533Z,58.17
2019-03-24T20:50:33.063Z,58.60
2019-03-24T20:53:05.703Z,57.83
2019-03-24T20:55:35.137Z,59.03
2019-03-24T20:58:04.991Z,59.73
2019-03-24T21:00:36.163Z,58.60
2019-03-24T21:03:08.137Z,58.40
2019-03-24T21:05:38.048Z,58.05
2019-03-24T21:08:07.757Z,61.40
2019-03-24T21:10:37.298Z,60.75
2019-03-24T21:13:06.779Z,59.80
2019-03-24T21:15:36.279Z,61.27
2019-03-24T21:18:06.083Z,59.90
2019-03-24T21:20:35.571Z,59.95
2019-03-24T21:23:05.086Z,59.23
2019-03-24T21:25:34.875Z,61.37
2019-03-24T21:28:04.416Z,60.30
2019-03-24T21:30:35.337Z,60.83
2019-03-24T21:33:05.079Z,61.02
2019-03-24T21:35:34.674Z,62.70
2019-03-24T21:38:04.319Z,61.05
2019-03-24T21:40:33.779Z,61.83
2019-03-24T21:43:03.171Z,61.18
2019-03-24T21:45:32.594Z,61.13
2019-03-24T21:48:01.909Z,61.18
2019-03-24T21:50:34.487Z,61.85
2019-03-24T21:53:04.050Z,62.98
2019-03-24T21:55:33.758Z,62.95
2019-03-24T21:58:03.154Z,63.00
2019-03-24T22:00:34.465Z,62.90
2019-03-24T22:03:04.229Z,63.50
2019-03-24T22:05:33.835Z,64.05
2019-03-24T22:08:03.310Z,64.17
2019-03-24T22:10:32.715Z,64.00
2019-03-24T22:13:02.150Z,63.80
2019-03-24T22:15:31.581Z,63.23
2019-03-24T22:18:01.353Z,64.60
2019-03-24T22:20:31.126Z,64.92
2019-03-24T22:23:00.971Z,64.37
2019-03-24T22:25:30.615Z,65.45
2019-03-24T22:28:00.131Z,66.15
2019-03-24T22:30:29.540Z,64.45
2019-03-24T22:32:59.179Z,63.08
2019-03-24T22:35:28.630Z,64.82
2019-03-24T22:37:57.967Z,65.43
2019-03-24T22:40:27.309Z,63.47
2019-03-24T22:42:57.038Z,64.20
2019-03-24T22:45:28.084Z,62.67
2019-03-24T22:47:57.675Z,62.38
2019-03-24T22:50:27.841Z,62.03
2019-03-24T22:52:57.343Z,62.30
2019-03-24T22:55:26.824Z,62.85
2019-03-24T22:57:56.853Z,64.72
2019-03-24T23:00:42.782Z,63.50
2019-03-24T23:03:12.823Z,63.30
2019-03-24T23:05:42.881Z,62.15
2019-03-24T23:08:13.750Z,63.38
2019-03-24T23:10:44.570Z,62.75
2019-03-24T23:13:14.333Z,63.87
2019-03-24T23:15:43.919Z,65.05
2019-03-24T23:18:13.437Z,63.90
2019-03-24T23:20:43.592Z,61.80
2019-03-24T23:23:13.014Z,65.00
2019-03-24T23:25:42.776Z,64.80
2019-03-24T23:28:12.700Z,63.65
2019-03-24T23:30:42.631Z,63.80
2019-03-24T23:33:12.169Z,63.83
2019-03-24T23:35:41.524Z,64.95
2019-03-24T23:38:11.588Z,64.90
2019-03-24T23:40:41.706Z,64.07
2019-03-24T23:43:11.117Z,65.72
2019-03-24T23:45:40.483Z,64.53
2019-03-24T23:48:09.866Z,64.72
2019-03-24T23:50:39.187Z,65.05
2019-03-24T23:53:08.847Z,64.22
2019-03-24T23:55:38.526Z,64.85
2019-03-24T23:58:07.982Z,64.65
